Accueil
METAR-TAF:

METAR-TAF

Aéroports :

Prague, République Tchèque

latitude: 50-12-59N, longitude: 014-23-42E, altitude: 280 m

Observation

Le bulletin a été fait il y a 18 heures et 42 minutes, à 10:00 UTC
Vent 8 kt de sud-ouest, variant entre sud et ouest
Température 12°C
Humidité 76%
Pression 1027 hPa
Visibilité 10 km ou plus
Quelques nuages à une hauteur de 1400 ft

METAR: LKVO 271000Z 23008KT 190V260 9999 FEW014 12/08 Q1027

Heure: 06:42 (04:42 UTC)


TAF: absent

Observations et prévisions météorologiques de plus de 4000 aéroports (messages METAR et TAF).

Les stations disponibles sont représentées par des disques jaunes et rouges sur la carte.

Passer la souris dessus pour voir le nom de la station.

Cliquer dessus pour voir les observations et prévisions météorologiques.

Pour changer de carte: cliquez sur les boutons verts avec une croix noire pour zoomer, sur le bouton vert avec un tiret pour effectuer un zoom arrière, ou sur les flèches vertes pour les cartes adjacentes.


METAR-TAF: